Aviation Digital Data Service (ADDS)

Output produced by METARs form (0430 UTC 22 September 2017)
found at http://www.aviationweather.gov/adds/metars/
 
GVAC 220400Z 04016KT 9999 BKN015 26/22 Q1013 NOSIG
TAF GVAC 212300Z 2200/2306 03018KT 9999 SCT015 
     PROB40 
     TEMPO 2210/2218 03020G30KT BKN014
       
TAF GVBA 212300Z 2200/2306 03020KT 9999 SCT015 
     PROB40 
     TEMPO 2210/2216 03020G30KT
       
GVSV 220400Z 07027KT 9000 FEW017 27/23 Q1013 NOSIG
TAF GVSV 212300Z 2200/2306 05022KT 9999 FEW018 
     TEMPO 2200/2206 06016G26KT 
     TEMPO 2210/2218 06028G40KT